createdAt,value
2019-04-27T00:07:17.029Z,97.1023
2019-04-27T00:08:03.401Z,97.2122
2019-04-27T00:17:58.340Z,96.2417
2019-04-27T00:27:03.473Z,96.9268
2019-04-27T00:35:23.609Z,96.6812
2019-04-27T00:42:13.554Z,96.9467
2019-04-27T00:51:23.923Z,94.8501
2019-04-27T00:59:43.257Z,92.8084
2019-04-27T01:01:15.072Z,93.5225
2019-04-27T01:06:33.683Z,94.7204
2019-04-27T01:16:24.150Z,93.5164
2019-04-27T01:19:28.852Z,93.2784
2019-04-27T01:22:23.633Z,93.5027
2019-04-27T01:31:33.336Z,94.1802
2019-04-27T01:33:04.957Z,94.6700
2019-04-27T01:38:23.519Z,96.2829
2019-04-27T01:48:22.898Z,95.8526
2019-04-27T01:57:24.293Z,96.1044
2019-04-27T02:02:43.673Z,95.3155
2019-04-27T02:09:33.510Z,93.5714
2019-04-27T02:11:04.187Z,95.1919
2019-04-27T02:18:43.260Z,93.0678
2019-04-27T02:36:52.821Z,92.6467
2019-04-27T02:48:14.031Z,92.9351
2019-04-27T02:55:03.229Z,90.5272
2019-04-27T03:03:24.219Z,92.1202
2019-04-27T03:21:33.128Z,92.3354
2019-04-27T03:32:13.496Z,92.0485
2019-04-27T03:40:33.489Z,92.3873
2019-04-27T03:50:23.530Z,90.9087
2019-04-27T04:00:13.484Z,91.0826
2019-04-27T04:09:23.153Z,90.5562
2019-04-27T04:20:43.673Z,90.6096
2019-04-27T04:28:23.373Z,90.3181
2019-04-27T04:31:25.579Z,89.6391
2019-04-27T04:35:13.123Z,88.7098
2019-04-27T04:46:33.606Z,90.2983
2019-04-27T04:49:36.561Z,91.2932
2019-04-27T04:51:53.517Z,89.1539
2019-04-27T05:01:43.444Z,91.3069
2019-04-27T05:02:30.375Z,91.3893
2019-04-27T05:07:54.219Z,92.0577
2019-04-27T05:13:13.283Z,89.3416
2019-04-27T05:21:33.211Z,90.9804
2019-04-27T05:31:23.216Z,93.7285
2019-04-27T05:39:43.436Z,91.1681
2019-04-27T05:48:03.625Z,90.1518
2019-04-27T05:51:07.146Z,89.7688
2019-04-27T05:51:53.887Z,90.0069
2019-04-27T06:01:43.789Z,88.5649
2019-04-27T06:17:43.279Z,87.0726
2019-04-27T06:19:14.921Z,87.4296
2019-04-27T06:26:03.780Z,87.3457
2019-04-27T06:33:39.297Z,88.8670
2019-04-27T06:36:34.884Z,88.3711
2019-04-27T06:38:07.279Z,90.0511
2019-04-27T06:38:54.291Z,90.1854
2019-04-27T06:44:14.565Z,88.7694
2019-04-27T06:47:22.841Z,88.8197
2019-04-27T06:52:34.213Z,90.7073
2019-04-27T06:55:39.266Z,91.2825
2019-04-27T06:56:25.567Z,91.7922
2019-04-27T06:57:58.868Z,91.5251
2019-04-27T07:01:03.188Z,92.4239
2019-04-27T07:04:10.563Z,91.0552
2019-04-27T07:04:57.090Z,89.7688
2019-04-27T07:05:43.469Z,90.5043
2019-04-27T07:08:01.278Z,91.4382
2019-04-27T07:10:19.578Z,91.0719
2019-04-27T07:11:05.935Z,91.7968
2019-04-27T07:11:53.352Z,91.7876
2019-04-27T07:12:41.125Z,90.6111
2019-04-27T07:13:29.146Z,91.9829
2019-04-27T07:14:16.391Z,91.8608
2019-04-27T07:15:48.618Z,90.1472
2019-04-27T07:17:20.262Z,91.5450
2019-04-27T07:18:07.334Z,90.6645
2019-04-27T07:18:53.648Z,90.7118
2019-04-27T07:27:13.737Z,91.4992
2019-04-27T07:31:53.542Z,91.2001
2019-04-27T07:34:55.825Z,90.3868
2019-04-27T07:37:13.576Z,90.9300
2019-04-27T07:38:00.408Z,91.3344
2019-04-27T07:38:48.523Z,91.7266
2019-04-27T07:41:06.029Z,92.5566
2019-04-27T07:44:54.745Z,93.0312
2019-04-27T07:50:13.629Z,94.6059
2019-04-27T07:51:45.291Z,92.5933
2019-04-27T07:54:04.073Z,93.2326
2019-04-27T07:54:43.274Z,92.6604
2019-04-27T07:56:15.293Z,94.2992
2019-04-27T08:00:04.107Z,94.0398
2019-04-27T08:03:09.821Z,94.0291
2019-04-27T08:05:20.581Z,94.0536
2019-04-27T08:06:52.911Z,94.4457
2019-04-27T08:07:39.993Z,94.7585
2019-04-27T08:09:13.481Z,95.7519
2019-04-27T08:10:47.617Z,95.2987
2019-04-27T08:13:06.400Z,91.1269
2019-04-27T08:15:24.008Z,93.8643
2019-04-27T08:16:56.295Z,96.0357
2019-04-27T08:20:03.566Z,92.7886
2019-04-27T08:23:43.200Z,94.5602
2019-04-27T08:25:14.845Z,93.2891
2019-04-27T08:25:53.375Z,92.9870
2019-04-27T08:27:24.990Z,94.4549
2019-04-27T08:32:43.183Z,91.3191
2019-04-27T08:42:35.000Z,89.5705
2019-04-27T08:47:53.181Z,88.4596
2019-04-27T08:57:43.246Z,91.0628
2019-04-27T09:13:43.292Z,89.6452
2019-04-27T09:35:03.292Z,87.8553
2019-04-27T09:46:25.900Z,82.9938
2019-04-27T10:01:33.620Z,81.9577
2019-04-27T10:09:53.531Z,77.0565
2019-04-27T10:20:38.283Z,77.7661
2019-04-27T10:29:43.588Z,76.8963
2019-04-27T10:32:47.107Z,73.8003
2019-04-27T10:45:38.019Z,72.8649
2019-04-27T10:46:25.798Z,75.3307
2019-04-27T10:47:11.957Z,72.5399
2019-04-27T10:48:43.594Z,75.1751
2019-04-27T10:55:36.309Z,71.4549
2019-04-27T10:57:53.367Z,73.4234
2019-04-27T11:04:43.239Z,71.1543
2019-04-27T11:13:03.694Z,70.4494
2019-04-27T11:23:00.772Z,71.1452
2019-04-27T11:23:45.953Z,72.3293
2019-04-27T11:26:53.255Z,70.5913
2019-04-27T11:36:43.242Z,71.9966
2019-04-27T11:47:23.833Z,69.6513
2019-04-27T12:01:06.749Z,68.8411
2019-04-27T12:04:56.288Z,67.7806
2019-04-27T12:15:33.679Z,66.3279
2019-04-27T12:18:36.046Z,68.6366
2019-04-27T12:28:25.610Z,67.6646
2019-04-27T12:29:13.568Z,68.8228
2019-04-27T12:30:45.258Z,67.4647
2019-04-27T12:36:03.505Z,69.0669
2019-04-27T12:39:06.541Z,71.7250
2019-04-27T12:41:23.427Z,72.9381
2019-04-27T12:42:55.741Z,76.4706
2019-04-27T12:43:42.731Z,75.2926
2019-04-27T12:44:29.023Z,74.1482
2019-04-27T12:45:18.232Z,74.6746
2019-04-27T12:46:05.911Z,73.4569
2019-04-27T12:46:52.933Z,72.7703
2019-04-27T12:56:03.731Z,70.1915
2019-04-27T13:03:43.326Z,64.8814
2019-04-27T13:06:47.042Z,67.9576
2019-04-27T13:07:33.487Z,65.1789
2019-04-27T13:17:23.590Z,65.0111
2019-04-27T13:25:53.649Z,65.4078
2019-04-27T13:35:03.587Z,65.1652
2019-04-27T13:42:43.655Z,61.0224
2019-04-27T13:51:03.192Z,62.2873
2019-04-27T13:54:17.114Z,63.7797
2019-04-27T14:07:03.309Z,68.3833
2019-04-27T14:12:23.399Z,76.9833
2019-04-27T14:17:34.335Z,82.3713
2019-04-27T14:34:23.269Z,80.4929
2019-04-27T14:44:14.207Z,78.0026
2019-04-27T14:45:01.228Z,78.5382
2019-04-27T14:48:04.235Z,82.0996
2019-04-27T14:52:39.121Z,79.8672
2019-04-27T14:55:43.226Z,78.8312
2019-04-27T14:57:14.922Z,77.2168
2019-04-27T14:58:49.453Z,78.0819
2019-04-27T14:59:38.327Z,76.2188
2019-04-27T15:00:24.832Z,76.6979
2019-04-27T15:05:37.229Z,82.5177
2019-04-27T15:06:25.421Z,84.8798
2019-04-27T15:07:13.799Z,85.4643
2019-04-27T15:08:05.538Z,85.3376
2019-04-27T15:08:53.017Z,86.9261
2019-04-27T15:09:40.397Z,87.3732
2019-04-27T15:10:32.787Z,88.1163
2019-04-27T15:11:19.413Z,89.6620
2019-04-27T15:12:06.491Z,89.3233
2019-04-27T15:12:55.497Z,89.4514
2019-04-27T15:13:43.032Z,90.8675
2019-04-27T15:14:31.113Z,92.1080
2019-04-27T15:15:18.046Z,92.5841
2019-04-27T15:16:06.702Z,91.3054
2019-04-27T15:16:56.513Z,91.9097
2019-04-27T15:17:44.273Z,92.5002
2019-04-27T15:18:34.717Z,92.0150
2019-04-27T15:19:23.037Z,92.2133
2019-04-27T15:20:10.071Z,91.6777
2019-04-27T15:20:58.571Z,91.5404
2019-04-27T15:21:58.554Z,90.3044
2019-04-27T15:22:41.497Z,92.6482
2019-04-27T15:23:30.772Z,91.1177
2019-04-27T15:24:20.647Z,92.0607
2019-04-27T15:25:13.092Z,90.8339
2019-04-27T15:26:00.740Z,89.3645
2019-04-27T15:26:50.030Z,88.0797
2019-04-27T15:27:40.436Z,89.2317
2019-04-27T15:28:29.477Z,88.8014
2019-04-27T15:29:15.778Z,88.2490
2019-04-27T15:30:06.602Z,88.4321
2019-04-27T15:30:54.510Z,88.2490
2019-04-27T15:31:41.828Z,90.7576
2019-04-27T15:32:29.291Z,89.3828
2019-04-27T15:33:16.066Z,88.6961
2019-04-27T15:34:05.371Z,89.1783
2019-04-27T15:34:52.666Z,90.3487
2019-04-27T15:35:40.620Z,88.3253
2019-04-27T15:36:30.995Z,90.0252
2019-04-27T15:37:18.381Z,88.4489
2019-04-27T15:38:11.226Z,90.6294
2019-04-27T15:38:58.489Z,89.2470
2019-04-27T15:39:44.874Z,90.1839
2019-04-27T15:40:32.141Z,89.8924
2019-04-27T15:41:19.644Z,90.6844
2019-04-27T15:42:08.087Z,89.9321
2019-04-27T15:42:55.808Z,90.6279
2019-04-27T15:43:42.685Z,90.9300
2019-04-27T15:44:30.029Z,89.7185
2019-04-27T15:45:20.569Z,90.0374
2019-04-27T15:46:09.006Z,89.6269
2019-04-27T15:46:57.910Z,90.4143
2019-04-27T15:47:49.275Z,91.3710
2019-04-27T15:48:38.510Z,91.4214
2019-04-27T15:49:24.897Z,91.4611
2019-04-27T15:50:12.312Z,91.5984
2019-04-27T15:51:03.294Z,91.3420
2019-04-27T15:51:54.743Z,90.8248
2019-04-27T15:52:42.415Z,91.8502
2019-04-27T15:53:29.744Z,92.8115
2019-04-27T15:54:16.260Z,93.4401
2019-04-27T15:55:08.468Z,93.0282
2019-04-27T15:56:00.127Z,91.3664
2019-04-27T15:56:47.748Z,90.2708
2019-04-27T15:57:33.993Z,89.9931
2019-04-27T15:58:24.915Z,91.7052
2019-04-27T15:59:12.424Z,92.1752
2019-04-27T15:59:52.304Z,91.7311
2019-04-27T16:00:39.317Z,91.2978
2019-04-27T16:01:31.232Z,90.9453
2019-04-27T16:02:18.669Z,88.8304
2019-04-27T16:03:05.976Z,90.7439
2019-04-27T16:03:53.172Z,91.9966
2019-04-27T16:04:40.005Z,90.5791
2019-04-27T16:05:33.366Z,91.5938
2019-04-27T16:06:23.275Z,91.7998
2019-04-27T16:07:10.581Z,91.4565
2019-04-27T16:07:59.225Z,91.3115
2019-04-27T16:08:50.114Z,92.4361
2019-04-27T16:09:38.628Z,92.6162
2019-04-27T16:10:28.321Z,92.1248
2019-04-27T16:11:16.739Z,91.6259
2019-04-27T16:12:12.089Z,91.1101
2019-04-27T16:13:06.483Z,91.6732
2019-04-27T16:13:52.236Z,91.2337
2019-04-27T16:14:40.990Z,90.7469
2019-04-27T16:15:31.247Z,91.0689
2019-04-27T16:16:18.578Z,90.4784
2019-04-27T16:17:08.121Z,88.5908
2019-04-27T16:17:58.688Z,89.8955
2019-04-27T16:18:45.636Z,90.7744
2019-04-27T16:19:33.107Z,90.1747
2019-04-27T16:20:29.246Z,91.3283
2019-04-27T16:21:12.613Z,91.6625
2019-04-27T16:21:59.652Z,91.0994
2019-04-27T16:22:46.330Z,89.8833
2019-04-27T16:23:37.336Z,90.7652
2019-04-27T16:24:25.496Z,91.6411
2019-04-27T16:25:12.177Z,92.2118
2019-04-27T16:26:00.630Z,91.2459
2019-04-27T16:26:54.693Z,87.9133
2019-04-27T16:27:42.271Z,89.4987
2019-04-27T16:28:29.615Z,89.6773
2019-04-27T16:29:16.552Z,89.3782
2019-04-27T16:30:11.521Z,91.1818
2019-04-27T16:30:58.138Z,88.4718
2019-04-27T16:31:45.093Z,88.3726
2019-04-27T16:32:32.472Z,90.5318
2019-04-27T16:33:23.134Z,89.8634
2019-04-27T16:34:10.987Z,90.1030
2019-04-27T16:34:59.257Z,89.6498
2019-04-27T16:35:48.804Z,90.3868
2019-04-27T16:36:37.806Z,90.7073
2019-04-27T16:37:28.613Z,90.1350
2019-04-27T16:38:15.671Z,91.0140
2019-04-27T16:39:07.733Z,89.1691
2019-04-27T16:39:55.796Z,87.8035
2019-04-27T16:40:42.746Z,88.5237
2019-04-27T16:41:32.930Z,87.3793
2019-04-27T16:42:22.443Z,88.6793
2019-04-27T16:43:09.744Z,86.9383
2019-04-27T16:43:58.158Z,88.2078
2019-04-27T16:44:51.395Z,84.2710
2019-04-27T16:45:30.196Z,84.6784
2019-04-27T16:46:19.100Z,85.0446
2019-04-27T16:47:12.503Z,87.2770
2019-04-27T16:48:02.103Z,86.6407
2019-04-27T16:48:50.283Z,86.1524
2019-04-27T16:49:38.180Z,84.3656
2019-04-27T16:50:25.492Z,84.1047
2019-04-27T16:51:13.481Z,86.1143
2019-04-27T16:52:01.057Z,86.1662
2019-04-27T16:52:56.542Z,84.7974
2019-04-27T16:53:41.314Z,85.0523
2019-04-27T16:54:28.356Z,85.9815
2019-04-27T16:55:17.416Z,83.6484
2019-04-27T16:56:14.198Z,82.7100
2019-04-27T16:57:03.244Z,83.1388
2019-04-27T16:57:51.276Z,83.6057
2019-04-27T16:58:39.522Z,82.8428
2019-04-27T16:59:42.738Z,82.9801
2019-04-27T17:00:22.583Z,84.4892
2019-04-27T17:01:10.788Z,83.0930
2019-04-27T17:01:57.874Z,83.1800
2019-04-27T17:02:45.113Z,83.0747
2019-04-27T17:03:35.750Z,80.4440
2019-04-27T17:04:23.894Z,80.6806
2019-04-27T17:05:11.222Z,79.5331
2019-04-27T17:05:58.387Z,78.9914
2019-04-27T17:06:46.405Z,81.2024
2019-04-27T17:07:37.687Z,79.3393
2019-04-27T17:08:26.580Z,78.5122
2019-04-27T17:09:13.436Z,79.3072
2019-04-27T17:10:00.810Z,78.3291
2019-04-27T17:10:48.082Z,78.4924
2019-04-27T17:11:35.414Z,80.2472
2019-04-27T17:12:23.785Z,79.7284
2019-04-27T17:13:15.757Z,78.6084
2019-04-27T17:14:02.657Z,80.1694
2019-04-27T17:14:50.173Z,77.7005
2019-04-27T17:15:39.687Z,78.1720
2019-04-27T17:16:33.841Z,78.2422
2019-04-27T17:17:20.683Z,79.4644
2019-04-27T17:18:08.299Z,79.1699
2019-04-27T17:18:57.768Z,79.4949
2019-04-27T17:19:51.599Z,78.8922
2019-04-27T17:20:39.394Z,80.3800
2019-04-27T17:21:28.754Z,77.9126
2019-04-27T17:22:16.407Z,78.6709
2019-04-27T17:23:03.895Z,81.0330
2019-04-27T17:23:51.208Z,80.2014
2019-04-27T17:24:43.983Z,79.9313
2019-04-27T17:25:39.161Z,79.4812
2019-04-27T17:26:24.089Z,80.2197
2019-04-27T17:27:16.375Z,81.2085
2019-04-27T17:28:05.256Z,80.5478
2019-04-27T17:28:51.950Z,81.7761
2019-04-27T17:29:38.718Z,79.5377
2019-04-27T17:30:26.430Z,78.8830
2019-04-27T17:31:19.677Z,79.3484
2019-04-27T17:32:06.302Z,80.2045
2019-04-27T17:32:53.202Z,79.9908
2019-04-27T17:33:44.524Z,78.8006
2019-04-27T17:34:32.814Z,79.2401
2019-04-27T17:35:19.795Z,76.9223
2019-04-27T17:36:08.084Z,78.1582
2019-04-27T17:36:56.440Z,77.6959
2019-04-27T17:37:44.092Z,77.7707
2019-04-27T17:38:31.365Z,78.4161
2019-04-27T17:39:19.319Z,79.4736
2019-04-27T17:40:10.163Z,77.3892
2019-04-27T17:40:57.445Z,78.1994
2019-04-27T17:41:49.169Z,78.4466
2019-04-27T17:42:36.728Z,79.5727
2019-04-27T17:43:24.301Z,80.9339
2019-04-27T17:44:12.792Z,81.0574
2019-04-27T17:45:03.082Z,81.8402
2019-04-27T17:45:50.362Z,82.3926
2019-04-27T17:46:38.553Z,82.8687
2019-04-27T17:47:26.687Z,83.3509
2019-04-27T17:48:18.434Z,85.0568
2019-04-27T17:49:05.885Z,84.4297
2019-04-27T17:49:53.453Z,85.3834
2019-04-27T17:50:40.840Z,85.6901
2019-04-27T17:51:28.528Z,85.6107
2019-04-27T17:52:18.293Z,85.7771
2019-04-27T17:53:05.816Z,85.1179
2019-04-27T17:53:52.770Z,85.5604
2019-04-27T17:54:46.902Z,84.9973
2019-04-27T17:55:32.973Z,85.3925
2019-04-27T17:56:32.958Z,85.4643
2019-04-27T17:57:13.613Z,85.7160
2019-04-27T17:58:05.061Z,83.9536
2019-04-27T17:58:52.750Z,84.2100
2019-04-27T17:59:40.108Z,82.6719
2019-04-27T18:00:28.087Z,81.8296
2019-04-27T18:01:19.059Z,82.8412
2019-04-27T18:02:08.787Z,82.2339
2019-04-27T18:02:57.881Z,82.4216
2019-04-27T18:03:46.302Z,82.1103
2019-04-27T18:04:37.698Z,82.1088
2019-04-27T18:05:25.847Z,82.5849
2019-04-27T18:06:12.742Z,81.9715
2019-04-27T18:07:03.311Z,82.5849
2019-04-27T18:07:51.392Z,82.4475
2019-04-27T18:08:40.342Z,82.7451
2019-04-27T18:09:29.042Z,82.1195
2019-04-27T18:10:22.685Z,83.1983
2019-04-27T18:11:08.874Z,81.7166
2019-04-27T18:11:55.975Z,82.4262
2019-04-27T18:12:44.613Z,82.6688
2019-04-27T18:13:35.322Z,83.7064
2019-04-27T18:14:22.271Z,83.2273
2019-04-27T18:15:10.437Z,82.2614
2019-04-27T18:16:02.299Z,82.5956
2019-04-27T18:16:49.206Z,82.4811
2019-04-27T18:17:36.683Z,82.9526
2019-04-27T18:18:27.025Z,82.3743
2019-04-27T18:19:15.290Z,82.4613
2019-04-27T18:20:02.587Z,83.7949
2019-04-27T18:20:50.364Z,83.4012
2019-04-27T18:21:38.635Z,82.5589
2019-04-27T18:22:25.271Z,82.2889
2019-04-27T18:23:15.130Z,82.5254
2019-04-27T18:24:04.098Z,82.3667
2019-04-27T18:24:51.464Z,83.7079
2019-04-27T18:25:40.350Z,83.2807
2019-04-27T18:26:30.326Z,82.2232
2019-04-27T18:27:18.378Z,82.8061
2019-04-27T18:28:07.977Z,82.3377
2019-04-27T18:28:58.399Z,82.8931
2019-04-27T18:29:48.618Z,83.5050
2019-04-27T18:30:38.772Z,83.5294
2019-04-27T18:31:20.329Z,82.9435
2019-04-27T18:32:08.867Z,83.4379
2019-04-27T18:32:59.372Z,83.4455
2019-04-27T18:33:48.522Z,84.2939
2019-04-27T18:34:35.871Z,84.6723
2019-04-27T18:35:26.256Z,83.9185
2019-04-27T18:36:14.607Z,84.2832
2019-04-27T18:37:04.127Z,83.9506
2019-04-27T18:37:53.533Z,84.2206
2019-04-27T18:38:43.599Z,85.1820
2019-04-27T18:39:30.541Z,85.7862
2019-04-27T18:40:18.305Z,85.9129
2019-04-27T18:41:08.067Z,84.3885
2019-04-27T18:41:58.548Z,84.4816
2019-04-27T18:42:44.552Z,84.5487
2019-04-27T18:43:33.692Z,85.4276
2019-04-27T18:44:24.009Z,84.2206
2019-04-27T18:45:13.847Z,84.6815
2019-04-27T18:46:00.152Z,84.9439
2019-04-27T18:46:48.910Z,85.1713
2019-04-27T18:47:36.889Z,85.5802
2019-04-27T18:48:26.294Z,84.6372
2019-04-27T18:49:13.535Z,85.2460
2019-04-27T18:50:11.031Z,85.4093
2019-04-27T18:50:53.501Z,85.1804
2019-04-27T18:51:40.936Z,85.5741
2019-04-27T18:52:28.065Z,86.1067
2019-04-27T18:53:16.325Z,84.9561
2019-04-27T18:54:08.153Z,84.4083
2019-04-27T18:54:55.264Z,83.7262
2019-04-27T18:55:42.823Z,84.4358
2019-04-27T18:56:33.335Z,84.4709
2019-04-27T18:57:22.102Z,84.8844
2019-04-27T18:58:09.185Z,83.9368
2019-04-27T18:58:57.995Z,84.0467
2019-04-27T18:59:48.308Z,83.6118
2019-04-27T19:00:35.276Z,83.9582
2019-04-27T19:01:23.306Z,84.5167
2019-04-27T19:02:10.731Z,84.5670
2019-04-27T19:02:58.454Z,84.6143
2019-04-27T19:03:44.929Z,83.7537
2019-04-27T19:04:32.432Z,85.0813
2019-04-27T19:05:19.630Z,84.0909
2019-04-27T19:06:08.517Z,84.6220
2019-04-27T19:06:55.514Z,84.9424
2019-04-27T19:07:43.076Z,84.8020
2019-04-27T19:08:30.392Z,84.7089
2019-04-27T19:09:18.617Z,85.2277
2019-04-27T19:10:05.850Z,84.1566
2019-04-27T19:10:52.442Z,84.1611
2019-04-27T19:11:52.959Z,84.8249
2019-04-27T19:12:31.278Z,84.7272
2019-04-27T19:13:19.234Z,83.9231
2019-04-27T19:14:05.949Z,85.9449
2019-04-27T19:14:53.385Z,86.1006
2019-04-27T19:15:40.617Z,85.4002
2019-04-27T19:16:29.202Z,86.0517
2019-04-27T19:17:19.529Z,85.0675
2019-04-27T19:18:05.694Z,85.2720
2019-04-27T19:18:53.329Z,85.3681
2019-04-27T19:19:40.742Z,86.3432
2019-04-27T19:20:28.815Z,85.8045
2019-04-27T19:21:15.234Z,87.0314
2019-04-27T19:22:02.995Z,86.5812
2019-04-27T19:22:50.325Z,86.7048
2019-04-27T19:23:38.226Z,87.2496
2019-04-27T19:24:28.152Z,86.4027
2019-04-27T19:25:15.816Z,86.5721
2019-04-27T19:26:03.154Z,85.3651
2019-04-27T19:26:50.164Z,86.6957
2019-04-27T19:27:39.108Z,87.1321
2019-04-27T19:28:28.311Z,86.6880
2019-04-27T19:29:18.872Z,86.7094
2019-04-27T19:30:04.348Z,86.8055
2019-04-27T19:30:51.930Z,87.3320
2019-04-27T19:31:38.389Z,87.6127
2019-04-27T19:32:24.955Z,88.1056
2019-04-27T19:33:11.884Z,87.5715
2019-04-27T19:33:59.647Z,87.3381
2019-04-27T19:34:44.951Z,88.1239
2019-04-27T19:35:31.503Z,88.6976
2019-04-27T19:36:19.174Z,88.3894
2019-04-27T19:37:08.115Z,88.8945
2019-04-27T19:37:55.199Z,87.8691
2019-04-27T19:38:42.603Z,88.6610
2019-04-27T19:39:30.025Z,88.0964
2019-04-27T19:40:18.672Z,88.4962
2019-04-27T19:41:07.875Z,89.2821
2019-04-27T19:42:02.906Z,88.8243
2019-04-27T19:42:49.488Z,89.2683
2019-04-27T19:43:38.388Z,88.6641
2019-04-27T19:44:25.045Z,88.8121
2019-04-27T19:45:10.351Z,88.3772
2019-04-27T19:45:58.413Z,88.2857
2019-04-27T19:46:46.106Z,88.1514
2019-04-27T19:47:33.311Z,88.6152
2019-04-27T19:48:20.215Z,88.4443
2019-04-27T19:49:08.787Z,86.5141
2019-04-27T19:49:56.151Z,88.1437
2019-04-27T19:50:43.206Z,87.8233
2019-04-27T19:51:30.413Z,86.7781
2019-04-27T19:52:18.366Z,88.1163
2019-04-27T19:53:04.846Z,88.6320
2019-04-27T19:53:52.102Z,88.4718
2019-04-27T19:54:39.899Z,88.5771
2019-04-27T19:55:28.206Z,89.3874
2019-04-27T19:56:14.294Z,89.4652
2019-04-27T19:57:01.405Z,88.1254
2019-04-27T19:57:49.797Z,87.4434
2019-04-27T19:58:38.144Z,89.6712
2019-04-27T19:59:25.465Z,88.8884
2019-04-27T20:00:12.543Z,88.4398
2019-04-27T20:01:11.582Z,89.9336
2019-04-27T20:01:51.628Z,89.6635
2019-04-27T20:02:38.998Z,89.3660
2019-04-27T20:03:26.456Z,89.7856
2019-04-27T20:04:13.306Z,88.9403
2019-04-27T20:05:00.960Z,89.4240
2019-04-27T20:05:48.293Z,89.6208
2019-04-27T20:06:36.118Z,90.6920
2019-04-27T20:07:22.521Z,89.8543
2019-04-27T20:08:08.893Z,89.9550
2019-04-27T20:08:56.152Z,89.5979
2019-04-27T20:09:44.271Z,90.3410
2019-04-27T20:10:34.205Z,90.9041
2019-04-27T20:11:21.488Z,90.9041
2019-04-27T20:12:10.403Z,90.7485
2019-04-27T20:12:56.118Z,91.7449
2019-04-27T20:13:43.012Z,91.6548
2019-04-27T20:14:30.910Z,91.2779
2019-04-27T20:15:17.255Z,91.7876
2019-04-27T20:16:04.807Z,92.2209
2019-04-27T20:16:52.182Z,91.8364
2019-04-27T20:17:32.529Z,90.8171
2019-04-27T20:18:20.867Z,90.1396
2019-04-27T20:19:08.508Z,90.8125
2019-04-27T20:19:55.754Z,90.9346
2019-04-27T20:20:42.521Z,90.0282
2019-04-27T20:21:28.817Z,90.7423
2019-04-27T20:22:18.019Z,88.7602
2019-04-27T20:23:05.272Z,89.6162
2019-04-27T20:23:52.337Z,90.1259
2019-04-27T20:24:41.380Z,89.7322
2019-04-27T20:25:31.216Z,89.3736
2019-04-27T20:26:18.635Z,89.0944
2019-04-27T20:27:05.748Z,90.4601
2019-04-27T20:27:52.687Z,91.0903
2019-04-27T20:28:41.391Z,91.3878
2019-04-27T20:29:28.940Z,91.4168
2019-04-27T20:30:16.422Z,92.3323
2019-04-27T20:31:04.033Z,91.8334
2019-04-27T20:31:51.297Z,92.1340
2019-04-27T20:32:37.899Z,93.5729
2019-04-27T20:33:25.441Z,93.3898
2019-04-27T20:34:12.629Z,92.5566
2019-04-27T20:34:58.973Z,88.6107
2019-04-27T20:35:45.944Z,90.2037
2019-04-27T20:36:33.358Z,90.1030
2019-04-27T20:37:21.084Z,90.3258
2019-04-27T20:38:08.753Z,91.2001
2019-04-27T20:38:56.076Z,91.0079
2019-04-27T20:39:36.836Z,91.8792
2019-04-27T20:40:24.292Z,90.9438
2019-04-27T20:41:11.641Z,90.0053
2019-04-27T20:41:58.499Z,91.0002
2019-04-27T20:42:45.569Z,91.8975
2019-04-27T20:43:32.469Z,92.1859
2019-04-27T20:44:20.971Z,90.9636
2019-04-27T20:45:08.461Z,91.0628
2019-04-27T20:45:55.888Z,91.9097
2019-04-27T20:46:42.178Z,91.4076
2019-04-27T20:47:29.595Z,92.9305
2019-04-27T20:48:16.923Z,93.1701
2019-04-27T20:49:04.078Z,92.1752
2019-04-27T20:49:51.027Z,90.0969
2019-04-27T20:50:41.175Z,91.5679
2019-04-27T20:51:28.675Z,90.4875
2019-04-27T20:52:15.200Z,90.2678
2019-04-27T20:53:02.107Z,89.1463
2019-04-27T20:53:51.730Z,90.1396
2019-04-27T20:54:39.136Z,91.4519
2019-04-27T20:55:21.210Z,92.4910
2019-04-27T20:56:08.642Z,91.9692
2019-04-27T20:56:57.315Z,91.9570
2019-04-27T20:57:43.760Z,90.2663
2019-04-27T20:58:31.466Z,90.3639
2019-04-27T20:59:18.311Z,90.6569
2019-04-27T21:00:05.665Z,91.2367
2019-04-27T21:00:52.637Z,90.3761
2019-04-27T21:01:40.065Z,89.8512
2019-04-27T21:02:26.995Z,90.1930
2019-04-27T21:03:14.304Z,90.2174
2019-04-27T21:04:00.984Z,88.3299
2019-04-27T21:04:48.444Z,88.4688
2019-04-27T21:05:35.714Z,89.7902
2019-04-27T21:06:23.048Z,90.2174
2019-04-27T21:07:10.952Z,89.5171
2019-04-27T21:07:58.553Z,89.7368
2019-04-27T21:08:38.121Z,90.1976
2019-04-27T21:09:25.521Z,90.7073
2019-04-27T21:10:12.444Z,90.5501
2019-04-27T21:11:01.566Z,90.4402
2019-04-27T21:11:48.520Z,87.0069
2019-04-27T21:12:36.221Z,88.0644
2019-04-27T21:13:23.142Z,89.9382
2019-04-27T21:14:11.230Z,89.0166
2019-04-27T21:14:58.296Z,87.3243
2019-04-27T21:15:44.814Z,86.4088
2019-04-27T21:16:32.755Z,86.8879
2019-04-27T21:17:19.527Z,89.2454
2019-04-27T21:18:05.731Z,90.3166
2019-04-27T21:18:53.309Z,90.6798
2019-04-27T21:19:41.384Z,90.9529
2019-04-27T21:20:28.653Z,91.1833
2019-04-27T21:21:15.889Z,91.8776
2019-04-27T21:22:03.873Z,91.8700
2019-04-27T21:22:53.223Z,88.9342
2019-04-27T21:23:41.428Z,90.6279
2019-04-27T21:24:28.882Z,90.6508
2019-04-27T21:25:16.413Z,90.4875
2019-04-27T21:26:02.712Z,89.8909
2019-04-27T21:26:51.253Z,89.9702
2019-04-27T21:27:38.753Z,90.5974
2019-04-27T21:28:25.685Z,89.8466
2019-04-27T21:29:12.704Z,89.8512
2019-04-27T21:30:02.541Z,89.8909
2019-04-27T21:30:49.121Z,89.8909
2019-04-27T21:31:36.625Z,90.1335
2019-04-27T21:32:24.321Z,90.9041
2019-04-27T21:33:12.480Z,91.1925
2019-04-27T21:33:59.388Z,89.9641
2019-04-27T21:34:45.821Z,90.6050
2019-04-27T21:35:33.109Z,90.5379
2019-04-27T21:36:21.801Z,89.2287
2019-04-27T21:37:08.814Z,90.7851
2019-04-27T21:37:56.342Z,91.1879
2019-04-27T21:38:43.692Z,91.6091
2019-04-27T21:39:31.912Z,91.8334
2019-04-27T21:40:18.312Z,90.1579
2019-04-27T21:41:06.094Z,90.5501
2019-04-27T21:41:53.366Z,90.7195
2019-04-27T21:42:41.203Z,90.6416
2019-04-27T21:43:28.204Z,90.8766
2019-04-27T21:44:15.048Z,90.4952
2019-04-27T21:45:02.302Z,90.4997
2019-04-27T21:45:51.072Z,91.2429
2019-04-27T21:46:37.545Z,90.8248
2019-04-27T21:47:26.097Z,90.6004
2019-04-27T21:48:13.363Z,90.1610
2019-04-27T21:48:59.900Z,90.3456
2019-04-27T21:49:47.197Z,91.2016
2019-04-27T21:50:34.586Z,90.2357
2019-04-27T21:51:21.930Z,90.5501
2019-04-27T21:52:12.706Z,90.2266
2019-04-27T21:53:02.520Z,88.9082
2019-04-27T21:53:51.245Z,89.5842
2019-04-27T21:54:37.400Z,88.8350
2019-04-27T21:55:24.284Z,89.7047
2019-04-27T21:56:11.495Z,87.9820
2019-04-27T21:56:58.889Z,87.2633
2019-04-27T21:57:45.999Z,86.7018
2019-04-27T21:58:33.471Z,87.1046
2019-04-27T21:59:21.152Z,86.4820
2019-04-27T22:00:08.188Z,87.6616
2019-04-27T22:00:55.517Z,88.0888
2019-04-27T22:01:42.821Z,88.3589
2019-04-27T22:02:31.116Z,88.4916
2019-04-27T22:03:21.428Z,88.4459
2019-04-27T22:04:11.260Z,87.7211
2019-04-27T22:04:58.363Z,88.3223
2019-04-27T22:05:45.916Z,88.4733
2019-04-27T22:06:32.828Z,88.0888
2019-04-27T22:07:21.600Z,89.0547
2019-04-27T22:08:08.961Z,89.2729
2019-04-27T22:08:56.396Z,88.4550
2019-04-27T22:09:43.319Z,89.2775
2019-04-27T22:10:31.987Z,89.5537
2019-04-27T22:11:19.245Z,88.9632
2019-04-27T22:12:06.254Z,88.2582
2019-04-27T22:12:52.552Z,88.8106
2019-04-27T22:13:40.979Z,89.2515
2019-04-27T22:14:28.337Z,89.5933
2019-04-27T22:15:14.684Z,89.8558
2019-04-27T22:16:01.595Z,88.1941
2019-04-27T22:16:48.985Z,88.0278
2019-04-27T22:17:36.361Z,88.3269
2019-04-27T22:18:23.512Z,87.4510
2019-04-27T22:19:12.030Z,85.9998
2019-04-27T22:20:01.472Z,86.7231
2019-04-27T22:20:48.918Z,87.4601
2019-04-27T22:21:36.315Z,86.7231
2019-04-27T22:22:23.600Z,85.9968
2019-04-27T22:23:10.712Z,86.1295
2019-04-27T22:23:58.365Z,84.4251
2019-04-27T22:24:45.796Z,84.4724
2019-04-27T22:25:35.655Z,82.5910
2019-04-27T22:26:22.428Z,83.0854
2019-04-27T22:27:09.360Z,81.5061
2019-04-27T22:27:56.843Z,82.8748
2019-04-27T22:28:47.095Z,83.1662
2019-04-27T22:29:35.711Z,83.0671
2019-04-27T22:30:22.698Z,83.8895
2019-04-27T22:31:12.423Z,83.9734